TimeCST,TemperatureF,Dew PointF,Humidity,Sea Level PressureIn,VisibilityMPH,Wind Direction,Wind SpeedMPH,Gust SpeedMPH,PrecipitationIn,Events,Conditions,WindDirDegrees,DateUTC
12:15 AM,21.2,21.2,100,30.15,6.0,SW,4.6,-,N/A,,Scattered Clouds,230,2013-03-08 06:15:00
12:35 AM,23.0,23.0,100,30.15,8.0,WSW,6.9,-,N/A,,Clear,240,2013-03-08 06:35:00
12:55 AM,21.2,21.2,100,30.15,7.0,WSW,4.6,-,N/A,,Clear,240,2013-03-08 06:55:00
1:15 AM,19.4,19.4,100,30.15,5.0,WSW,6.9,-,N/A,,Clear,250,2013-03-08 07:15:00
1:35 AM,19.4,19.4,100,30.15,5.0,WSW,8.1,-,N/A,,Clear,250,2013-03-08 07:35:00
1:55 AM,19.4,19.4,100,30.17,5.0,SW,6.9,-,N/A,,Clear,230,2013-03-08 07:55:00
2:15 AM,17.6,17.6,100,30.16,5.0,West,8.1,-,N/A,,Clear,270,2013-03-08 08:15:00
2:35 AM,17.6,17.6,100,30.16,5.0,West,8.1,-,N/A,,Clear,280,2013-03-08 08:35:00
2:55 AM,17.6,17.6,100,30.16,7.0,WNW,8.1,-,N/A,,Clear,290,2013-03-08 08:55:00
3:15 AM,17.6,17.6,100,30.15,7.0,WNW,6.9,-,N/A,,Clear,290,2013-03-08 09:15:00
3:35 AM,19.4,19.4,100,30.14,9.0,NW,5.8,-,N/A,,Clear,320,2013-03-08 09:35:00
3:55 AM,23.0,23.0,100,30.14,10.0,WNW,6.9,-,N/A,,Clear,300,2013-03-08 09:55:00
4:15 AM,19.4,19.4,100,30.13,9.0,NW,6.9,-,N/A,,Clear,310,2013-03-08 10:15:00
4:35 AM,19.4,19.4,100,30.14,10.0,Calm,Calm,-,N/A,,Partly Cloudy,0,2013-03-08 10:35:00
4:55 AM,19.4,19.4,100,30.14,7.0,WNW,4.6,-,N/A,,Mostly Cloudy,300,2013-03-08 10:55:00
5:15 AM,19.4,19.4,100,30.14,8.0,NNW,3.5,-,N/A,,Overcast,330,2013-03-08 11:15:00
5:35 AM,19.4,19.4,100,30.14,9.0,NW,3.5,-,N/A,,Overcast,320,2013-03-08 11:35:00
5:55 AM,19.4,19.4,100,30.14,10.0,NW,3.5,-,N/A,,Overcast,320,2013-03-08 11:55:00
6:15 AM,21.2,21.2,100,30.14,10.0,Calm,Calm,-,N/A,,Overcast,0,2013-03-08 12:15:00
6:35 AM,19.4,19.4,100,30.14,9.0,Calm,Calm,-,N/A,,Overcast,0,2013-03-08 12:35:00
6:55 AM,19.4,19.4,100,30.14,8.0,WSW,3.5,-,N/A,,Scattered Clouds,240,2013-03-08 12:55:00
7:15 AM,17.6,17.6,100,30.15,5.0,WNW,3.5,-,N/A,,Clear,290,2013-03-08 13:15:00
7:35 AM,17.6,17.6,100,30.16,7.0,WNW,4.6,-,N/A,,Partly Cloudy,300,2013-03-08 13:35:00
7:55 AM,19.4,19.4,100,30.16,8.0,NNW,4.6,-,N/A,,Mostly Cloudy,340,2013-03-08 13:55:00
8:15 AM,19.4,19.4,100,30.16,7.0,North,6.9,-,N/A,,Overcast,350,2013-03-08 14:15:00
8:35 AM,23.0,23.0,100,30.16,8.0,North,9.2,-,N/A,,Overcast,360,2013-03-08 14:35:00
8:55 AM,23.0,23.0,100,30.17,5.0,North,6.9,-,N/A,,Overcast,360,2013-03-08 14:55:00
9:15 AM,23.0,23.0,100,30.16,2.5,North,9.2,-,N/A,,Overcast,10,2013-03-08 15:15:00
9:35 AM,23.0,23.0,100,30.16,5.0,NNE,8.1,-,N/A,,Overcast,20,2013-03-08 15:35:00
9:55 AM,23.0,23.0,100,30.16,9.0,North,10.4,-,N/A,,Overcast,10,2013-03-08 15:55:00
10:15 AM,24.8,24.8,100,30.17,10.0,NE,5.8,-,N/A,,Overcast,40,2013-03-08 16:15:00
10:35 AM,24.8,24.8,100,30.18,10.0,ENE,5.8,-,N/A,,Scattered Clouds,70,2013-03-08 16:35:00
10:55 AM,26.6,24.8,93,30.19,10.0,ESE,4.6,-,N/A,,Partly Cloudy,120,2013-03-08 16:55:00
11:15 AM,26.6,26.6,100,30.18,9.0,East,5.8,-,N/A,,Mostly Cloudy,90,2013-03-08 17:15:00
11:35 AM,28.4,26.6,93,30.18,8.0,SE,4.6,-,N/A,,Mostly Cloudy,140,2013-03-08 17:35:00
11:55 AM,28.4,26.6,93,30.18,7.0,ESE,5.8,-,N/A,,Partly Cloudy,120,2013-03-08 17:55:00
12:15 PM,28.4,26.6,93,30.18,5.0,East,3.5,-,N/A,,Scattered Clouds,100,2013-03-08 18:15:00
12:35 PM,28.4,26.6,93,30.18,8.0,ESE,4.6,-,N/A,,Scattered Clouds,110,2013-03-08 18:35:00
12:55 PM,28.4,26.6,93,30.16,9.0,ENE,3.5,-,N/A,,Partly Cloudy,70,2013-03-08 18:55:00
1:15 PM,28.4,26.6,93,30.14,9.0,ENE,6.9,-,N/A,,Partly Cloudy,70,2013-03-08 19:15:00
1:35 PM,30.2,26.6,86,30.14,10.0,ENE,8.1,-,N/A,,Partly Cloudy,70,2013-03-08 19:35:00
1:55 PM,30.2,26.6,86,30.12,10.0,ENE,8.1,-,N/A,,Mostly Cloudy,60,2013-03-08 19:55:00
2:15 PM,30.2,26.6,86,30.11,10.0,ENE,6.9,-,N/A,,Mostly Cloudy,70,2013-03-08 20:15:00
2:35 PM,30.2,26.6,86,30.11,10.0,ESE,8.1,-,N/A,,Mostly Cloudy,110,2013-03-08 20:35:00
2:55 PM,28.4,28.4,100,30.10,8.0,East,6.9,-,N/A,,Mostly Cloudy,90,2013-03-08 20:55:00
3:15 PM,28.4,28.4,100,30.09,8.0,ENE,9.2,-,N/A,,Overcast,60,2013-03-08 21:15:00
3:35 PM,28.4,28.4,100,30.08,8.0,ENE,8.1,-,N/A,,Mostly Cloudy,60,2013-03-08 21:35:00
3:55 PM,28.4,28.4,100,30.08,8.0,ENE,8.1,-,N/A,,Partly Cloudy,60,2013-03-08 21:55:00
4:15 PM,28.4,28.4,100,30.07,8.0,ENE,9.2,-,N/A,,Partly Cloudy,70,2013-03-08 22:15:00
4:35 PM,28.4,28.4,100,30.06,8.0,ENE,9.2,-,N/A,,Mostly Cloudy,70,2013-03-08 22:35:00
4:55 PM,28.4,28.4,100,30.06,8.0,East,9.2,-,N/A,,Mostly Cloudy,80,2013-03-08 22:55:00
5:15 PM,28.4,28.4,100,30.05,7.0,ENE,6.9,-,N/A,,Scattered Clouds,70,2013-03-08 23:15:00
5:35 PM,28.4,28.4,100,30.05,8.0,ENE,9.2,-,N/A,,Scattered Clouds,70,2013-03-08 23:35:00
5:55 PM,28.4,28.4,100,30.04,7.0,ENE,10.4,-,N/A,,Mostly Cloudy,70,2013-03-08 23:55:00
6:15 PM,28.4,28.4,100,30.03,6.0,ENE,13.8,-,N/A,,Mostly Cloudy,70,2013-03-09 00:15:00
6:35 PM,26.6,26.6,100,30.03,5.0,East,12.7,-,N/A,,Partly Cloudy,80,2013-03-09 00:35:00
6:55 PM,26.6,26.6,100,30.03,5.0,East,9.2,-,N/A,,Mostly Cloudy,80,2013-03-09 00:55:00
7:15 PM,26.6,26.6,100,30.03,7.0,East,10.4,-,N/A,,Overcast,90,2013-03-09 01:15:00
7:35 PM,26.6,26.6,100,30.03,6.0,East,12.7,-,N/A,,Overcast,100,2013-03-09 01:35:00
7:55 PM,24.8,24.8,100,30.03,6.0,East,13.8,20.7,N/A,,Overcast,90,2013-03-09 01:55:00
8:15 PM,24.8,24.8,100,30.03,5.0,East,10.4,-,N/A,,Overcast,80,2013-03-09 02:15:00
8:35 PM,24.8,24.8,100,30.03,5.0,East,10.4,-,N/A,,Overcast,80,2013-03-09 02:35:00
8:55 PM,24.8,24.8,100,30.05,5.0,East,8.1,-,N/A,,Overcast,90,2013-03-09 02:55:00
9:15 PM,26.6,26.6,100,30.04,6.0,ESE,8.1,-,N/A,,Overcast,120,2013-03-09 03:15:00
9:35 PM,26.6,26.6,100,30.05,7.0,ESE,9.2,-,N/A,,Overcast,110,2013-03-09 03:35:00
9:55 PM,26.6,26.6,100,30.04,7.0,ENE,6.9,-,N/A,,Overcast,70,2013-03-09 03:55:00
10:15 PM,26.6,26.6,100,30.04,7.0,East,6.9,-,N/A,,Overcast,80,2013-03-09 04:15:00
10:35 PM,26.6,26.6,100,30.03,7.0,ENE,9.2,-,N/A,,Overcast,70,2013-03-09 04:35:00
10:55 PM,26.6,26.6,100,30.01,7.0,ENE,10.4,-,N/A,,Overcast,70,2013-03-09 04:55:00
11:15 PM,24.8,24.8,100,30.00,6.0,ENE,9.2,-,N/A,,Overcast,60,2013-03-09 05:15:00
11:35 PM,24.8,24.8,100,29.98,5.0,NE,10.4,-,N/A,,Overcast,40,2013-03-09 05:35:00
11:55 PM,24.8,24.8,100,29.97,5.0,NE,10.4,-,N/A,,Overcast,40,2013-03-09 05:55:00